createdAt,value
2022-09-22T00:01:40.014Z,98270.00
2022-09-22T00:04:12.940Z,98281.00
2022-09-22T00:06:44.595Z,98265.00
2022-09-22T00:09:17.302Z,98269.00
2022-09-22T00:11:49.413Z,98259.00
2022-09-22T00:14:22.022Z,98268.00
2022-09-22T00:16:53.492Z,98283.00
2022-09-22T00:19:24.588Z,98270.00
2022-09-22T00:21:53.750Z,98264.00
2022-09-22T00:24:24.183Z,98262.00
2022-09-22T00:26:57.534Z,98261.00
2022-09-22T00:29:29.376Z,98255.00
2022-09-22T00:32:01.286Z,98259.00
2022-09-22T00:34:33.111Z,98255.00
2022-09-22T00:37:01.281Z,98245.00
2022-09-22T00:39:30.738Z,98237.00
2022-09-22T00:41:58.823Z,98263.00
2022-09-22T00:44:41.275Z,98246.00
2022-09-22T00:47:31.877Z,98257.00
2022-09-22T00:50:10.906Z,98256.00
2022-09-22T00:52:46.428Z,98255.00
2022-09-22T00:55:21.893Z,98259.00
2022-09-22T00:57:53.833Z,98255.00
2022-09-22T01:00:24.320Z,98250.00
2022-09-22T01:02:58.680Z,98245.00
2022-09-22T01:05:29.156Z,98237.00
2022-09-22T01:07:57.703Z,98243.00
2022-09-22T01:10:27.223Z,98235.00
2022-09-22T01:13:10.311Z,98241.00
2022-09-22T01:15:55.442Z,98243.00
2022-09-22T01:18:34.245Z,98227.00
2022-09-22T01:21:33.695Z,98237.00
2022-09-22T01:24:39.995Z,98239.00
2022-09-22T01:27:59.047Z,98234.00
2022-09-22T01:30:36.454Z,98219.00
2022-09-22T01:33:34.150Z,98218.00
2022-09-22T01:36:16.814Z,98214.00
2022-09-22T01:38:57.576Z,98215.00
2022-09-22T01:41:47.867Z,98227.00
2022-09-22T01:44:25.777Z,98229.00
2022-09-22T01:47:03.390Z,98227.00
2022-09-22T01:49:38.297Z,98231.00
2022-09-22T01:52:12.890Z,98217.00
2022-09-22T01:54:46.589Z,98212.00
2022-09-22T01:57:20.930Z,98212.00
2022-09-22T01:59:56.190Z,98213.00
2022-09-22T02:02:34.068Z,98217.00
2022-09-22T02:05:09.800Z,98210.00
2022-09-22T02:07:44.022Z,98213.00
2022-09-22T02:10:18.554Z,98218.00
2022-09-22T02:12:49.167Z,98221.00
2022-09-22T02:15:35.577Z,98205.00
2022-09-22T02:18:13.808Z,98205.00
2022-09-22T02:20:42.466Z,98214.00
2022-09-22T02:23:10.710Z,98209.00
2022-09-22T02:25:41.691Z,98215.00
2022-09-22T02:28:12.957Z,98217.00
2022-09-22T02:30:47.420Z,98212.00
2022-09-22T02:33:27.516Z,98222.00
2022-09-22T02:36:05.319Z,98212.00
2022-09-22T02:38:45.606Z,98222.00
2022-09-22T02:41:25.869Z,98210.00
2022-09-22T02:44:03.584Z,98206.00
2022-09-22T02:46:41.107Z,98212.00
2022-09-22T02:49:16.615Z,98217.00
2022-09-22T02:51:46.533Z,98217.00
2022-09-22T02:54:15.269Z,98221.00
2022-09-22T02:56:44.595Z,98229.00
2022-09-22T02:59:12.977Z,98220.00
2022-09-22T03:01:41.287Z,98219.00
2022-09-22T03:04:10.888Z,98221.00
2022-09-22T03:06:39.091Z,98195.00
2022-09-22T03:09:07.334Z,98208.00
2022-09-22T03:11:35.516Z,98206.00
2022-09-22T03:14:03.607Z,98214.00
2022-09-22T03:16:31.718Z,98208.00
2022-09-22T03:18:59.980Z,98198.00
2022-09-22T03:21:29.460Z,98191.00
2022-09-22T03:23:57.625Z,98194.00
2022-09-22T03:26:25.779Z,98196.00
2022-09-22T03:28:54.517Z,98199.00
2022-09-22T03:31:22.693Z,98202.00
2022-09-22T03:33:52.816Z,98199.00
2022-09-22T03:36:21.469Z,98203.00
2022-09-22T03:38:52.015Z,98204.00
2022-09-22T03:41:20.480Z,98200.00
2022-09-22T03:43:48.613Z,98198.00
2022-09-22T03:46:16.828Z,98201.00
2022-09-22T03:48:45.421Z,98209.00
2022-09-22T03:51:14.075Z,98204.00
2022-09-22T03:53:43.316Z,98210.00
2022-09-22T03:56:15.713Z,98202.00
2022-09-22T03:58:44.985Z,98194.00
2022-09-22T04:01:13.785Z,98200.00
2022-09-22T04:03:42.537Z,98211.00
2022-09-22T04:06:11.652Z,98200.00
2022-09-22T04:08:40.189Z,98207.00
2022-09-22T04:11:08.439Z,98212.00
2022-09-22T04:13:40.583Z,98203.00
2022-09-22T04:16:11.072Z,98199.00
2022-09-22T04:18:40.127Z,98195.00
2022-09-22T04:21:09.062Z,98186.00
2022-09-22T04:23:37.675Z,98199.00
2022-09-22T04:26:06.713Z,98201.00
2022-09-22T04:28:34.916Z,98205.00
2022-09-22T04:31:04.599Z,98192.00
2022-09-22T04:33:32.999Z,98181.00
2022-09-22T04:36:01.612Z,98180.00
2022-09-22T04:38:29.851Z,98194.00
2022-09-22T04:40:58.119Z,98201.00
2022-09-22T04:43:26.681Z,98203.00
2022-09-22T04:45:54.967Z,98200.00
2022-09-22T04:48:24.469Z,98191.00
2022-09-22T04:50:52.914Z,98191.00
2022-09-22T04:53:21.019Z,98205.00
2022-09-22T04:55:50.906Z,98198.00
2022-09-22T04:58:18.987Z,98191.00
2022-09-22T05:00:47.255Z,98198.00
2022-09-22T05:03:19.928Z,98199.00
2022-09-22T05:05:51.485Z,98199.00
2022-09-22T05:08:19.568Z,98196.00
2022-09-22T05:10:47.663Z,98202.00
2022-09-22T05:13:15.934Z,98193.00
2022-09-22T05:15:44.445Z,98194.00
2022-09-22T05:18:12.509Z,98197.00
2022-09-22T05:20:40.608Z,98182.00
2022-09-22T05:23:11.017Z,98195.00
2022-09-22T05:25:39.171Z,98199.00
2022-09-22T05:28:07.400Z,98194.00
2022-09-22T05:30:35.538Z,98191.00
2022-09-22T05:33:03.659Z,98201.00
2022-09-22T05:35:36.425Z,98193.00
2022-09-22T05:38:05.116Z,98204.00
2022-09-22T05:40:34.630Z,98202.00
2022-09-22T05:43:02.859Z,98206.00
2022-09-22T05:45:31.082Z,98209.00
2022-09-22T05:47:59.288Z,98201.00
2022-09-22T05:50:27.388Z,98215.00
2022-09-22T05:53:05.371Z,98207.00
2022-09-22T05:55:35.747Z,98212.00
2022-09-22T05:58:04.640Z,98220.00
2022-09-22T06:00:34.009Z,98209.00
2022-09-22T06:03:02.535Z,98214.00
2022-09-22T06:05:30.813Z,98206.00
2022-09-22T06:08:01.410Z,98229.00
2022-09-22T06:10:30.553Z,98223.00
2022-09-22T06:13:05.908Z,98231.00
2022-09-22T06:15:36.038Z,98222.00
2022-09-22T06:18:11.857Z,98221.00
2022-09-22T06:20:43.763Z,98213.00
2022-09-22T06:23:13.491Z,98212.00
2022-09-22T06:25:41.667Z,98218.00
2022-09-22T06:28:15.077Z,98224.00
2022-09-22T06:30:44.039Z,98235.00
2022-09-22T06:33:12.938Z,98234.00
2022-09-22T06:35:42.930Z,98227.00
2022-09-22T06:38:15.714Z,98221.00
2022-09-22T06:40:45.218Z,98219.00
2022-09-22T06:43:20.738Z,98223.00
2022-09-22T06:45:49.061Z,98225.00
2022-09-22T06:48:17.564Z,98225.00
2022-09-22T06:50:51.155Z,98224.00
2022-09-22T06:53:21.747Z,98220.00
2022-09-22T06:55:53.569Z,98225.00
2022-09-22T06:58:24.079Z,98220.00
2022-09-22T07:00:53.671Z,98230.00
2022-09-22T07:03:26.229Z,98218.00
2022-09-22T07:05:57.446Z,98216.00
2022-09-22T07:08:26.641Z,98215.00
2022-09-22T07:10:57.206Z,98217.00
2022-09-22T07:13:29.651Z,98220.00
2022-09-22T07:16:01.926Z,98216.00
2022-09-22T07:18:31.081Z,98220.00
2022-09-22T07:21:03.989Z,98215.00
2022-09-22T07:23:34.705Z,98219.00
2022-09-22T07:26:04.681Z,98208.00
2022-09-22T07:28:36.880Z,98217.00
2022-09-22T07:31:06.240Z,98217.00
2022-09-22T07:33:34.545Z,98214.00
2022-09-22T07:36:05.667Z,98204.00
2022-09-22T07:38:36.841Z,98212.00
2022-09-22T07:41:09.525Z,98215.00
2022-09-22T07:43:39.622Z,98193.00
2022-09-22T07:46:08.733Z,98214.00
2022-09-22T07:48:42.463Z,98211.00
2022-09-22T07:51:16.915Z,98217.00
2022-09-22T07:53:47.435Z,98212.00
2022-09-22T07:56:18.262Z,98205.00
2022-09-22T07:58:53.454Z,98219.00
2022-09-22T08:01:25.173Z,98202.00
2022-09-22T08:03:53.668Z,98198.00
2022-09-22T08:06:23.910Z,98206.00
2022-09-22T08:08:56.603Z,98218.00
2022-09-22T08:11:27.748Z,98211.00
2022-09-22T08:14:00.042Z,98209.00
2022-09-22T08:16:30.977Z,98206.00
2022-09-22T08:19:02.249Z,98208.00
2022-09-22T08:21:35.169Z,98219.00
2022-09-22T08:24:04.231Z,98208.00
2022-09-22T08:26:32.830Z,98201.00
2022-09-22T08:29:02.535Z,98202.00
2022-09-22T08:31:31.164Z,98202.00
2022-09-22T08:33:59.793Z,98204.00
2022-09-22T08:36:28.958Z,98194.00
2022-09-22T08:38:59.839Z,98191.00
2022-09-22T08:41:42.916Z,98202.00
2022-09-22T08:44:24.088Z,98203.00
2022-09-22T08:46:55.530Z,98190.00
2022-09-22T08:49:48.501Z,98179.00
2022-09-22T08:52:27.726Z,98187.00
2022-09-22T08:54:59.468Z,98180.00
2022-09-22T08:57:56.340Z,98189.00
2022-09-22T09:00:31.674Z,98195.00
2022-09-22T09:03:22.803Z,98195.00
2022-09-22T09:06:12.149Z,98195.00
2022-09-22T09:09:10.902Z,98198.00
2022-09-22T09:12:04.306Z,98198.00
2022-09-22T09:14:57.967Z,98184.00
2022-09-22T09:17:31.550Z,98185.00
2022-09-22T09:20:06.148Z,98188.00
2022-09-22T09:22:45.013Z,98194.00
2022-09-22T09:25:23.037Z,98194.00
2022-09-22T09:27:59.876Z,98178.00
2022-09-22T09:30:33.580Z,98182.00
2022-09-22T09:33:10.871Z,98169.00
2022-09-22T09:35:48.379Z,98178.00
2022-09-22T09:38:20.210Z,98173.00
2022-09-22T09:40:56.377Z,98173.00
2022-09-22T09:43:28.123Z,98174.00
2022-09-22T09:46:13.550Z,98175.00
2022-09-22T09:49:02.684Z,98175.00
2022-09-22T09:51:30.984Z,98169.00
2022-09-22T09:54:03.861Z,98175.00
2022-09-22T09:56:33.012Z,98155.00
2022-09-22T09:59:21.813Z,98159.00
2022-09-22T10:01:52.653Z,98166.00
2022-09-22T10:04:33.229Z,98160.00
2022-09-22T10:07:14.065Z,98159.00
2022-09-22T10:09:42.788Z,98151.00
2022-09-22T10:12:30.279Z,98167.00
2022-09-22T10:15:01.578Z,98157.00
2022-09-22T10:17:33.885Z,98148.00
2022-09-22T10:20:26.227Z,98148.00
2022-09-22T10:22:56.174Z,98160.00
2022-09-22T10:25:27.300Z,98150.00
2022-09-22T10:28:04.604Z,98144.00
2022-09-22T10:30:37.424Z,98150.00
2022-09-22T10:33:19.488Z,98140.00
2022-09-22T10:35:56.640Z,98144.00
2022-09-22T10:38:29.034Z,98144.00
2022-09-22T10:41:05.060Z,98139.00
2022-09-22T10:43:44.000Z,98139.00
2022-09-22T10:46:50.117Z,98128.00
2022-09-22T10:49:37.204Z,98138.00
2022-09-22T10:52:18.175Z,98137.00
2022-09-22T10:55:16.069Z,98127.00
2022-09-22T10:58:25.063Z,98128.00
2022-09-22T11:01:11.492Z,98124.00
2022-09-22T11:04:30.460Z,98120.00
2022-09-22T11:07:58.774Z,98129.00
2022-09-22T11:10:56.108Z,98126.00
2022-09-22T11:13:48.549Z,98124.00
2022-09-22T11:16:45.609Z,98120.00
2022-09-22T11:19:38.929Z,98117.00
2022-09-22T11:22:36.526Z,98114.00
2022-09-22T11:25:24.900Z,98114.00
2022-09-22T11:28:13.476Z,98118.00
2022-09-22T11:30:48.528Z,98112.00
2022-09-22T11:34:07.999Z,98114.00
2022-09-22T11:36:54.124Z,98116.00
2022-09-22T11:39:43.054Z,98111.00
2022-09-22T11:42:25.110Z,98102.00
2022-09-22T11:45:14.406Z,98102.00
2022-09-22T11:47:59.169Z,98098.00
2022-09-22T11:50:48.906Z,98110.00
2022-09-22T11:53:51.067Z,98099.00
2022-09-22T11:56:44.532Z,98084.00
2022-09-22T11:59:29.835Z,98091.00
2022-09-22T12:02:04.551Z,98085.00
2022-09-22T12:04:41.977Z,98086.00
2022-09-22T12:07:18.763Z,98088.00
2022-09-22T12:09:53.273Z,98078.00
2022-09-22T12:12:25.055Z,98071.00
2022-09-22T12:15:08.288Z,98074.00
2022-09-22T12:17:47.474Z,98069.00
2022-09-22T12:20:35.274Z,98078.00
2022-09-22T12:23:31.332Z,98068.00
2022-09-22T12:26:05.706Z,98069.00
2022-09-22T12:28:43.116Z,98069.00
2022-09-22T12:31:15.190Z,98062.00
2022-09-22T12:33:51.153Z,98072.00
2022-09-22T12:36:29.530Z,98070.00
2022-09-22T12:39:18.010Z,98070.00
2022-09-22T12:41:50.347Z,98069.00
2022-09-22T12:44:24.029Z,98072.00
2022-09-22T12:46:56.839Z,98057.00
2022-09-22T12:49:25.357Z,98060.00
2022-09-22T12:51:53.712Z,98054.00
2022-09-22T12:54:38.904Z,98064.00
2022-09-22T12:57:31.315Z,98058.00
2022-09-22T13:00:32.279Z,98060.00
2022-09-22T13:03:22.930Z,98053.00
2022-09-22T13:05:53.103Z,98045.00
2022-09-22T13:08:46.791Z,98048.00
2022-09-22T13:11:15.341Z,98037.00
2022-09-22T13:13:45.813Z,98051.00
2022-09-22T13:16:36.392Z,98050.00
2022-09-22T13:19:10.997Z,98045.00
2022-09-22T13:21:41.627Z,98047.00
2022-09-22T13:24:27.079Z,98047.00
2022-09-22T13:27:05.700Z,98048.00
2022-09-22T13:29:34.383Z,98042.00
2022-09-22T13:32:26.567Z,98039.00
2022-09-22T13:34:54.682Z,98044.00
2022-09-22T13:37:25.591Z,98042.00
2022-09-22T13:39:55.464Z,98031.00
2022-09-22T13:42:31.364Z,98037.00
2022-09-22T13:45:06.313Z,98036.00
2022-09-22T13:47:37.593Z,98040.00
2022-09-22T13:50:13.127Z,98036.00
2022-09-22T13:52:42.194Z,98038.00
2022-09-22T13:55:19.191Z,98032.00
2022-09-22T13:57:49.046Z,98034.00
2022-09-22T14:00:26.384Z,98022.00
2022-09-22T14:02:58.606Z,98023.00
2022-09-22T14:05:31.117Z,98008.00
2022-09-22T14:08:18.324Z,98011.00
2022-09-22T14:10:49.564Z,98015.00
2022-09-22T14:13:40.806Z,98017.00
2022-09-22T14:16:27.446Z,98014.00
2022-09-22T14:19:04.203Z,98007.00
2022-09-22T14:21:33.975Z,97998.00
2022-09-22T14:24:02.992Z,98007.00
2022-09-22T14:26:38.991Z,98002.00
2022-09-22T14:29:18.009Z,98000.00
2022-09-22T14:31:52.625Z,98000.00
2022-09-22T14:34:27.949Z,97991.00
2022-09-22T14:36:56.743Z,97995.00
2022-09-22T14:39:31.889Z,97989.00
2022-09-22T14:42:10.257Z,97990.00
2022-09-22T14:44:48.298Z,97990.00
2022-09-22T14:47:29.165Z,97986.00
2022-09-22T14:50:20.487Z,97990.00
2022-09-22T14:52:58.282Z,97977.00
2022-09-22T14:55:35.771Z,97978.00
2022-09-22T14:58:08.798Z,97972.00
2022-09-22T15:00:55.342Z,97983.00
2022-09-22T15:03:29.151Z,97978.00
2022-09-22T15:06:08.627Z,97985.00
2022-09-22T15:08:37.667Z,97979.00
2022-09-22T15:11:07.058Z,97983.00
2022-09-22T15:13:42.088Z,97982.00
2022-09-22T15:16:43.303Z,97978.00
2022-09-22T15:19:13.309Z,97975.00
2022-09-22T15:21:46.119Z,97981.00
2022-09-22T15:24:15.540Z,97974.00
2022-09-22T15:26:44.227Z,97978.00
2022-09-22T15:29:14.592Z,97972.00
2022-09-22T15:31:42.891Z,97971.00
2022-09-22T15:34:16.677Z,97973.00
2022-09-22T15:36:49.893Z,97969.00
2022-09-22T15:39:22.845Z,97963.00
2022-09-22T15:41:51.870Z,97977.00
2022-09-22T15:44:20.615Z,97980.00
2022-09-22T15:46:53.079Z,97982.00
2022-09-22T15:49:26.010Z,97978.00
2022-09-22T15:51:57.368Z,97974.00
2022-09-22T15:54:27.381Z,97968.00
2022-09-22T15:56:57.359Z,97973.00
2022-09-22T15:59:32.265Z,97973.00
2022-09-22T16:02:01.669Z,97960.00
2022-09-22T16:04:32.305Z,97961.00
2022-09-22T16:07:08.231Z,97962.00
2022-09-22T16:09:37.052Z,97959.00
2022-09-22T16:12:10.651Z,97965.00
2022-09-22T16:14:39.457Z,97958.00
2022-09-22T16:17:08.872Z,97962.00
2022-09-22T16:19:37.033Z,97951.00
2022-09-22T16:22:07.198Z,97950.00
2022-09-22T16:24:35.315Z,97956.00
2022-09-22T16:27:04.103Z,97952.00
2022-09-22T16:29:32.525Z,97954.00
2022-09-22T16:32:01.069Z,97949.00
2022-09-22T16:34:29.242Z,97944.00
2022-09-22T16:36:57.653Z,97939.00
2022-09-22T16:39:27.128Z,97940.00
2022-09-22T16:41:55.203Z,97940.00
2022-09-22T16:44:23.348Z,97935.00
2022-09-22T16:46:51.636Z,97942.00
2022-09-22T16:49:20.823Z,97941.00
2022-09-22T16:51:50.641Z,97941.00
2022-09-22T16:54:20.032Z,97946.00
2022-09-22T16:56:53.702Z,97936.00
2022-09-22T16:59:23.654Z,97933.00
2022-09-22T17:01:52.061Z,97946.00
2022-09-22T17:04:21.055Z,97932.00
2022-09-22T17:06:50.079Z,97938.00
2022-09-22T17:09:19.529Z,97939.00
2022-09-22T17:11:50.336Z,97941.00
2022-09-22T17:14:22.146Z,97945.00
2022-09-22T17:16:52.668Z,97936.00
2022-09-22T17:19:22.792Z,97937.00
2022-09-22T17:21:53.876Z,97946.00
2022-09-22T17:24:23.729Z,97940.00
2022-09-22T17:26:55.752Z,97942.00
2022-09-22T17:29:26.501Z,97942.00
2022-09-22T17:31:57.538Z,97948.00
2022-09-22T17:34:28.410Z,97939.00
2022-09-22T17:36:57.951Z,97938.00
2022-09-22T17:39:28.527Z,97932.00
2022-09-22T17:41:58.638Z,97935.00
2022-09-22T17:44:28.683Z,97948.00
2022-09-22T17:47:14.795Z,97949.00
2022-09-22T17:50:00.616Z,97947.00
2022-09-22T17:52:46.537Z,97950.00
2022-09-22T17:55:22.546Z,97942.00
2022-09-22T17:57:52.740Z,97939.00
2022-09-22T18:00:24.241Z,97937.00
2022-09-22T18:02:54.141Z,97950.00
2022-09-22T18:05:26.780Z,97950.00
2022-09-22T18:07:58.250Z,97953.00
2022-09-22T18:10:32.095Z,97960.00
2022-09-22T18:13:03.036Z,97953.00
2022-09-22T18:15:33.486Z,97944.00
2022-09-22T18:18:01.821Z,97953.00
2022-09-22T18:20:30.377Z,97942.00
2022-09-22T18:23:00.319Z,97948.00
2022-09-22T18:25:28.935Z,97955.00
2022-09-22T18:27:57.795Z,97942.00
2022-09-22T18:30:28.212Z,97948.00
2022-09-22T18:32:56.507Z,97962.00
2022-09-22T18:35:28.804Z,97948.00
2022-09-22T18:37:56.936Z,97952.00
2022-09-22T18:40:25.116Z,97970.00
2022-09-22T18:42:55.291Z,97948.00
2022-09-22T18:45:23.825Z,97958.00
2022-09-22T18:47:53.609Z,97959.00
2022-09-22T18:50:21.746Z,97973.00
2022-09-22T18:52:54.223Z,97968.00
2022-09-22T18:55:22.394Z,97963.00
2022-09-22T18:57:50.604Z,97962.00
2022-09-22T19:00:20.857Z,97963.00
2022-09-22T19:02:49.385Z,97951.00
2022-09-22T19:05:19.366Z,97950.00
2022-09-22T19:07:48.314Z,97966.00
2022-09-22T19:10:20.602Z,97965.00
2022-09-22T19:12:49.509Z,97959.00
2022-09-22T19:15:19.624Z,97976.00
2022-09-22T19:17:50.116Z,97964.00
2022-09-22T19:20:23.945Z,97973.00
2022-09-22T19:22:53.831Z,97959.00
2022-09-22T19:25:22.718Z,97963.00
2022-09-22T19:27:52.287Z,97957.00
2022-09-22T19:30:23.379Z,97966.00
2022-09-22T19:32:54.395Z,97957.00
2022-09-22T19:35:26.603Z,97965.00
2022-09-22T19:37:55.087Z,97968.00
2022-09-22T19:40:25.392Z,97965.00
2022-09-22T19:42:55.118Z,97964.00
2022-09-22T19:45:25.402Z,97962.00
2022-09-22T19:47:56.177Z,97968.00
2022-09-22T19:50:26.198Z,97973.00
2022-09-22T19:52:54.406Z,97964.00
2022-09-22T19:55:22.720Z,97976.00
2022-09-22T19:57:52.998Z,97958.00
2022-09-22T20:00:26.001Z,97966.00
2022-09-22T20:02:58.626Z,97970.00
2022-09-22T20:05:33.578Z,97952.00
2022-09-22T20:08:03.820Z,97963.00
2022-09-22T20:10:33.228Z,97973.00
2022-09-22T20:13:21.727Z,97957.00
2022-09-22T20:15:50.012Z,97963.00
2022-09-22T20:18:21.416Z,97962.00
2022-09-22T20:20:53.299Z,97973.00
2022-09-22T20:23:22.659Z,97967.00
2022-09-22T20:25:52.451Z,97967.00
2022-09-22T20:28:21.263Z,97955.00
2022-09-22T20:30:50.042Z,97949.00
2022-09-22T20:33:22.077Z,97952.00
2022-09-22T20:35:55.072Z,97959.00
2022-09-22T20:38:23.337Z,97954.00
2022-09-22T20:40:51.548Z,97949.00
2022-09-22T20:43:19.673Z,97955.00
2022-09-22T20:45:47.773Z,97951.00
2022-09-22T20:48:18.283Z,97952.00
2022-09-22T20:50:47.240Z,97948.00
2022-09-22T20:53:17.062Z,97952.00
2022-09-22T20:55:45.235Z,97934.00
2022-09-22T20:58:13.373Z,97942.00
2022-09-22T21:00:41.507Z,97937.00
2022-09-22T21:03:09.874Z,97950.00
2022-09-22T21:05:38.037Z,97938.00
2022-09-22T21:08:23.641Z,97945.00
2022-09-22T21:10:53.155Z,97954.00
2022-09-22T21:13:21.244Z,97946.00
2022-09-22T21:15:49.538Z,97950.00
2022-09-22T21:18:17.755Z,97953.00
2022-09-22T21:20:45.916Z,97960.00
2022-09-22T21:23:14.034Z,97959.00
2022-09-22T21:25:42.287Z,97941.00
2022-09-22T21:28:12.968Z,97959.00
2022-09-22T21:30:41.825Z,97949.00
2022-09-22T21:33:12.778Z,97942.00
2022-09-22T21:35:40.972Z,97934.00
2022-09-22T21:38:09.071Z,97945.00
2022-09-22T21:40:37.206Z,97944.00
2022-09-22T21:43:05.363Z,97936.00
2022-09-22T21:45:34.867Z,97937.00
2022-09-22T21:48:03.229Z,97948.00
2022-09-22T21:50:31.334Z,97940.00
2022-09-22T21:52:59.411Z,97938.00
2022-09-22T21:55:27.664Z,97943.00
2022-09-22T21:57:56.343Z,97932.00
2022-09-22T22:00:48.017Z,97936.00
2022-09-22T22:03:32.185Z,97937.00
2022-09-22T22:06:06.369Z,97925.00
2022-09-22T22:08:37.372Z,97945.00
2022-09-22T22:11:08.129Z,97933.00
2022-09-22T22:13:39.349Z,97930.00
2022-09-22T22:16:11.405Z,97939.00
2022-09-22T22:18:43.112Z,97923.00
2022-09-22T22:21:14.366Z,97924.00
2022-09-22T22:23:45.354Z,97920.00
2022-09-22T22:26:16.340Z,97922.00
2022-09-22T22:28:45.613Z,97906.00
2022-09-22T22:31:17.078Z,97926.00
2022-09-22T22:33:48.115Z,97925.00
2022-09-22T22:36:18.496Z,97911.00
2022-09-22T22:38:46.796Z,97926.00
2022-09-22T22:41:17.132Z,97914.00
2022-09-22T22:43:46.119Z,97914.00
2022-09-22T22:46:16.778Z,97900.00
2022-09-22T22:48:48.907Z,97904.00
2022-09-22T22:51:19.277Z,97913.00
2022-09-22T22:53:47.958Z,97904.00
2022-09-22T22:56:18.433Z,97910.00
2022-09-22T22:58:48.773Z,97906.00
2022-09-22T23:01:20.583Z,97900.00
2022-09-22T23:03:53.776Z,97900.00
2022-09-22T23:06:25.737Z,97915.00
2022-09-22T23:08:54.883Z,97898.00
2022-09-22T23:11:26.945Z,97900.00
2022-09-22T23:14:01.932Z,97906.00
2022-09-22T23:16:32.228Z,97909.00
2022-09-22T23:19:06.724Z,97900.00
2022-09-22T23:21:36.397Z,97910.00
2022-09-22T23:24:05.902Z,97900.00
2022-09-22T23:26:34.553Z,97903.00
2022-09-22T23:29:03.826Z,97910.00
2022-09-22T23:31:32.093Z,97898.00
2022-09-22T23:34:01.595Z,97909.00
2022-09-22T23:36:30.516Z,97910.00
2022-09-22T23:39:03.697Z,97907.00
2022-09-22T23:41:33.609Z,97911.00
2022-09-22T23:44:03.557Z,97902.00
2022-09-22T23:46:32.350Z,97905.00
2022-09-22T23:49:02.251Z,97898.00
2022-09-22T23:51:30.540Z,97900.00
2022-09-22T23:53:58.989Z,97894.00
2022-09-22T23:56:27.453Z,97894.00
2022-09-22T23:58:55.814Z,97896.00
